Time;durP1;ratioP1;P1;durP2;ratioP2;P2;SDS_P1;SDS_P2;PMS_P1;PMS_P2;Temp;Humidity;BMP_temperature;BMP_pressure;BME280_temperature;BME280_humidity;BME280_pressure;Samples;Min_cycle;Max_cycle;Signal;HPM_P1;HPM_P2
2023/04/04 00:00:37;;;;;;;3.47;1.48;;;2.10;77.30;;;;;;6218938;22;86912;-80
2023/04/04 00:03:02;;;;;;;3.47;1.75;;;2.10;76.80;;;;;;6193428;22;86890;-79
2023/04/04 00:05:28;;;;;;;4.88;1.30;;;2.00;77.70;;;;;;6220275;22;86159;-79
2023/04/04 00:07:54;;;;;;;10.82;2.53;;;2.00;78.00;;;;;;6192732;22;91511;-79
2023/04/04 00:13:42;;;;;;;6.68;2.40;;;1.80;78.30;;;;;;6219114;22;86071;-79
2023/04/04 00:16:08;;;;;;;6.28;2.38;;;1.80;78.20;;;;;;6220280;22;86096;-81
2023/04/04 00:18:35;;;;;;;7.95;2.38;;;1.70;78.40;;;;;;6193456;22;87962;-80
2023/04/04 00:21:00;;;;;;;5.28;1.85;;;1.70;78.50;;;;;;6192933;22;89881;-80
2023/04/04 00:26:53;;;;;;;9.35;1.90;;;1.70;79.00;;;;;;6219872;22;86014;-80
2023/04/04 00:29:19;;;;;;;6.35;2.15;;;1.60;78.80;;;;;;6219718;22;87468;-80
2023/04/04 00:31:44;;;;;;;9.25;2.13;;;1.60;79.50;;;;;;6220361;22;87004;-82
2023/04/04 00:34:10;;;;;;;8.27;1.92;;;1.60;79.90;;;;;;6192873;22;86090;-79
2023/04/04 00:36:36;;;;;;;6.30;2.97;;;1.60;80.00;;;;;;6192685;22;86308;-84
2023/04/04 00:39:01;;;;;;;4.32;1.90;;;1.50;79.70;;;;;;6193149;22;87953;-82
2023/04/04 00:41:27;;;;;;;5.28;2.15;;;1.50;79.40;;;;;;6192738;22;89402;-79
2023/04/04 00:43:54;;;;;;;5.35;1.70;;;1.40;80.00;;;;;;6193376;22;86541;-80
2023/04/04 00:46:20;;;;;;;7.88;1.95;;;1.40;80.60;;;;;;6193470;22;86386;-82
2023/04/04 00:56:10;;;;;;;4.07;1.90;;;1.30;80.90;;;;;;6212814;22;87297;-81
2023/04/04 00:58:35;;;;;;;11.80;2.35;;;1.20;81.80;;;;;;6220353;22;86118;-80
2023/04/04 01:01:01;;;;;;;5.40;2.22;;;1.20;81.90;;;;;;6219817;22;87339;-84
2023/04/04 01:03:28;;;;;;;6.07;2.50;;;1.20;82.00;;;;;;6192911;22;89855;-79
2023/04/04 01:05:54;;;;;;;8.32;2.50;;;1.20;81.80;;;;;;6219557;22;86351;-79
2023/04/04 01:08:24;;;;;;;9.32;1.90;;;1.10;82.60;;;;;;6219846;22;86106;-83
2023/04/04 01:10:50;;;;;;;6.25;1.77;;;1.10;82.80;;;;;;6220719;22;87237;-79
2023/04/04 01:13:16;;;;;;;5.55;2.63;;;1.10;82.30;;;;;;6192427;22;96479;-81
2023/04/04 01:15:42;;;;;;;5.60;2.15;;;1.10;83.40;;;;;;6192364;22;86394;-80
2023/04/04 01:18:11;;;;;;;10.75;2.58;;;1.00;84.00;;;;;;6192515;22;85957;-81
2023/04/04 01:20:46;;;;;;;7.50;2.42;;;1.00;83.30;;;;;;6219471;22;86949;-79
2023/04/04 01:26:33;;;;;;;6.32;2.60;;;1.00;83.80;;;;;;6219698;22;85759;-81
2023/04/04 01:28:59;;;;;;;7.70;2.55;;;0.90;83.70;;;;;;6192378;22;86197;-81
2023/04/04 01:31:37;;;;;;;10.88;2.67;;;0.90;83.40;;;;;;6193477;22;89306;-79
2023/04/04 01:34:27;;;;;;;7.63;3.28;;;0.90;82.70;;;;;;6192747;22;88391;-79
2023/04/04 01:37:05;;;;;;;9.45;2.83;;;0.80;82.10;;;;;;6192328;22;86778;-82
2023/04/04 01:39:37;;;;;;;9.18;3.10;;;0.80;81.80;;;;;;6155715;22;86515;-84
2023/04/04 01:42:06;;;;;;;11.80;3.83;;;0.80;83.00;;;;;;6155742;22;89997;-85
2023/04/04 01:44:32;;;;;;;12.55;3.28;;;0.80;82.80;;;;;;6130131;22;89497;-84
2023/04/04 01:46:58;;;;;;;5.70;2.95;;;0.80;83.10;;;;;;6155478;22;86029;-85
2023/04/04 01:49:24;;;;;;;9.23;2.90;;;0.80;83.40;;;;;;6131863;22;86218;-80
2023/04/04 01:51:51;;;;;;;6.38;2.55;;;0.70;84.30;;;;;;6156172;22;86816;-86
2023/04/04 01:54:17;;;;;;;3.22;2.53;;;0.70;84.30;;;;;;6155991;22;87404;-81
2023/04/04 02:00:06;;;;;;;8.52;3.33;;;0.60;84.20;;;;;;6155669;22;85972;-81
2023/04/04 02:02:31;;;;;;;6.47;3.00;;;0.60;84.80;;;;;;6131116;22;89876;-81
2023/04/04 02:04:57;;;;;;;8.70;2.92;;;0.50;85.50;;;;;;6130337;22;87285;-80
2023/04/04 02:07:23;;;;;;;10.95;3.22;;;0.50;85.30;;;;;;6096003;23;86332;-81
2023/04/04 02:09:48;;;;;;;7.38;2.92;;;0.50;84.80;;;;;;6106508;22;86230;-83
2023/04/04 02:15:35;;;;;;;9.18;2.88;;;0.50;85.10;;;;;;6154805;22;86365;-80
2023/04/04 02:18:02;;;;;;;8.48;2.75;;;0.50;83.50;;;;;;6130820;22;86464;-80
2023/04/04 02:20:27;;;;;;;6.05;2.78;;;0.40;83.40;;;;;;6130861;22;86263;-85
2023/04/04 02:22:54;;;;;;;4.70;2.40;;;0.40;82.90;;;;;;6130650;22;90633;-82
2023/04/04 02:25:21;;;;;;;11.07;3.13;;;0.40;83.50;;;;;;6131900;22;88550;-82
2023/04/04 02:27:47;;;;;;;6.40;2.88;;;0.40;82.70;;;;;;6066378;23;86328;-83
2023/04/04 02:30:13;;;;;;;7.00;2.88;;;0.40;84.20;;;;;;6066034;23;86970;-83
2023/04/04 02:32:38;;;;;;;5.53;3.08;;;0.30;83.80;;;;;;6066254;23;87097;-81
2023/04/04 02:35:05;;;;;;;7.65;3.28;;;0.30;84.60;;;;;;6065156;23;86733;-81
2023/04/04 02:37:30;;;;;;;7.18;2.90;;;0.20;85.10;;;;;;6073817;23;88558;-85
2023/04/04 02:46:58;;;;;;;9.63;3.53;;;0.20;86.10;;;;;;6125466;23;89860;-83
2023/04/04 02:49:23;;;;;;;9.68;3.72;;;0.10;86.00;;;;;;6125770;23;91151;-83
2023/04/04 02:51:49;;;;;;;10.00;3.67;;;0.10;85.00;;;;;;6125982;23;86393;-84
2023/04/04 02:54:14;;;;;;;8.23;3.50;;;0.10;84.50;;;;;;6125189;23;90393;-82
2023/04/04 02:56:41;;;;;;;10.55;4.28;;;0.00;84.40;;;;;;6124801;23;88680;-82
2023/04/04 02:59:07;;;;;;;7.47;3.03;;;0.10;85.60;;;;;;6157186;22;86494;-84
2023/04/04 03:01:32;;;;;;;7.78;3.60;;;0.00;84.20;;;;;;6192985;22;86090;-84
2023/04/04 03:03:58;;;;;;;5.85;3.13;;;0.10;84.50;;;;;;6192478;22;90330;-81
2023/04/04 03:13:14;;;;;;;6.78;2.78;;;0.00;84.30;;;;;;6219949;22;86016;-83
2023/04/04 03:15:39;;;;;;;9.82;3.90;;;-0.10;83.90;;;;;;6191210;22;90837;-79
2023/04/04 03:18:05;;;;;;;8.70;3.28;;;-0.10;84.60;;;;;;6191896;22;90303;-84
2023/04/04 03:20:31;;;;;;;8.82;3.50;;;-0.10;85.60;;;;;;6219383;22;86222;-85
2023/04/04 03:22:57;;;;;;;7.18;3.17;;;-0.10;85.10;;;;;;6219437;22;86063;-86
2023/04/04 03:32:06;;;;;;;5.18;2.60;;;-0.30;85.20;;;;;;6218155;22;87367;-88
2023/04/04 03:34:32;;;;;;;7.13;3.20;;;-0.30;85.60;;;;;;6220540;22;86098;-85
2023/04/04 03:36:58;;;;;;;10.65;3.78;;;-0.30;85.90;;;;;;6191910;22;90642;-82
2023/04/04 03:39:30;;;;;;;10.88;4.03;;;-0.30;85.80;;;;;;6218877;22;86416;-86
2023/04/04 03:45:24;;;;;;;8.77;3.50;;;-0.40;86.00;;;;;;6216217;22;87304;-86
2023/04/04 03:47:50;;;;;;;10.05;3.60;;;-0.50;87.10;;;;;;6186512;22;90471;-86
2023/04/04 03:50:16;;;;;;;8.05;3.63;;;-0.50;88.00;;;;;;6211341;22;88419;-80
2023/04/04 03:52:42;;;;;;;10.95;3.40;;;-0.50;87.90;;;;;;6186593;22;90164;-87
2023/04/04 03:55:08;;;;;;;9.90;3.30;;;-0.50;88.00;;;;;;6212647;22;88672;-82
2023/04/04 03:57:35;;;;;;;10.38;3.60;;;-0.60;87.60;;;;;;6189178;22;89574;-83
2023/04/04 04:00:01;;;;;;;9.98;3.38;;;-0.60;89.00;;;;;;6189137;22;90853;-82
2023/04/04 04:02:27;;;;;;;7.45;3.40;;;-0.60;89.10;;;;;;6189457;22;91249;-84
2023/04/04 04:05:02;;;;;;;8.93;3.60;;;-0.70;89.50;;;;;;6217066;22;87638;-83
2023/04/04 04:07:28;;;;;;;10.88;3.47;;;-0.70;90.00;;;;;;6217325;22;87277;-82
2023/04/04 04:09:53;;;;;;;6.82;3.40;;;-0.70;90.00;;;;;;6217251;22;88407;-80
2023/04/04 04:12:19;;;;;;;8.73;3.42;;;-0.70;90.20;;;;;;6216734;22;88231;-80
2023/04/04 04:14:45;;;;;;;8.65;3.90;;;-0.80;90.30;;;;;;6189735;22;87482;-83
2023/04/04 04:30:38;;;;;;;12.02;4.10;;;-0.80;90.60;;;;;;6215699;22;87368;-84
2023/04/04 04:33:03;;;;;;;8.60;3.90;;;-0.80;90.70;;;;;;6189372;22;91868;-87
2023/04/04 04:35:29;;;;;;;11.25;4.50;;;-0.90;90.40;;;;;;6190083;22;90790;-81
2023/04/04 04:37:55;;;;;;;9.90;4.63;;;-0.90;90.20;;;;;;6190596;22;87432;-81
2023/04/04 04:40:20;;;;;;;11.25;4.70;;;-0.90;90.40;;;;;;6191501;22;89239;-83
2023/04/04 04:42:46;;;;;;;13.85;4.10;;;-0.90;90.10;;;;;;6190872;22;91506;-82
2023/04/04 04:45:12;;;;;;;8.95;4.07;;;-0.90;90.60;;;;;;6190886;22;91383;-81
2023/04/04 04:47:37;;;;;;;9.43;3.92;;;-0.90;90.50;;;;;;6217067;22;88119;-82
2023/04/04 04:56:47;;;;;;;10.00;4.35;;;-1.00;90.80;;;;;;6193719;22;88550;-84
2023/04/04 04:59:13;;;;;;;9.07;4.55;;;-1.00;90.90;;;;;;6190689;22;87648;-78
2023/04/04 05:01:39;;;;;;;7.85;4.90;;;-1.00;90.90;;;;;;6191424;22;90519;-79
2023/04/04 05:04:05;;;;;;;12.35;5.70;;;-1.10;90.90;;;;;;6217568;22;88916;-86
2023/04/04 05:06:31;;;;;;;9.60;5.40;;;-1.00;91.10;;;;;;6190919;22;89576;-81
2023/04/04 05:08:56;;;;;;;9.25;5.65;;;-1.10;90.90;;;;;;6191078;22;87505;-81
2023/04/04 05:11:22;;;;;;;9.10;5.32;;;-1.10;90.90;;;;;;6190669;22;89889;-80
2023/04/04 05:14:06;;;;;;;12.82;5.53;;;-1.10;91.00;;;;;;6217372;22;88619;-84
2023/04/04 05:16:32;;;;;;;11.40;5.35;;;-1.10;91.00;;;;;;6190542;22;95245;-83
2023/04/04 05:18:57;;;;;;;10.02;4.90;;;-1.10;90.90;;;;;;6190761;22;87522;-81
2023/04/04 05:21:23;;;;;;;8.70;4.63;;;-1.10;90.70;;;;;;6190523;22;88294;-83
2023/04/04 05:23:49;;;;;;;12.73;5.20;;;-1.10;90.80;;;;;;6190375;22;91726;-82
2023/04/04 05:26:14;;;;;;;13.30;5.00;;;-1.10;91.00;;;;;;6217193;22;87956;-85
2023/04/04 05:28:40;;;;;;;13.68;4.85;;;-1.20;90.90;;;;;;6191765;22;87004;-81
2023/04/04 05:31:06;;;;;;;10.05;4.78;;;-1.10;91.00;;;;;;6191249;22;89677;-84
2023/04/04 05:33:31;;;;;;;14.57;6.55;;;-1.10;90.80;;;;;;6217667;22;88766;-82
2023/04/04 05:35:59;;;;;;;11.18;5.15;;;-1.10;90.70;;;;;;6190410;22;91113;-81
2023/04/04 05:38:25;;;;;;;9.48;4.93;;;-1.10;91.00;;;;;;6190079;22;88351;-85
2023/04/04 05:40:53;;;;;;;14.27;5.20;;;-1.00;91.40;;;;;;6217002;22;87955;-78
2023/04/04 05:43:19;;;;;;;8.32;5.30;;;-1.10;91.40;;;;;;6190208;22;90174;-77
2023/04/04 05:45:44;;;;;;;9.65;4.65;;;-1.00;91.70;;;;;;6216988;22;87527;-77
2023/04/04 05:48:10;;;;;;;9.70;5.32;;;-1.00;91.60;;;;;;6190206;22;87115;-78
2023/04/04 05:54:13;;;;;;;8.82;5.40;;;-0.90;91.60;;;;;;6217718;22;87506;-81
2023/04/04 05:56:38;;;;;;;10.40;5.45;;;-0.80;91.40;;;;;;6217894;22;88838;-84
2023/04/04 05:59:04;;;;;;;11.38;4.95;;;-0.80;91.40;;;;;;6190498;22;87354;-82
2023/04/04 06:01:30;;;;;;;15.57;5.80;;;-0.70;91.50;;;;;;6217941;22;87864;-78
2023/04/04 06:03:55;;;;;;;15.15;5.50;;;-0.70;91.30;;;;;;6215784;22;89298;-83
2023/04/04 06:06:21;;;;;;;8.00;4.97;;;-0.60;91.40;;;;;;6217497;22;87845;-82
2023/04/04 06:08:47;;;;;;;15.13;5.57;;;-0.50;91.30;;;;;;6188699;22;87548;-80
2023/04/04 06:11:12;;;;;;;14.05;5.40;;;-0.50;91.10;;;;;;6215949;22;87475;-81
2023/04/04 06:13:38;;;;;;;11.38;4.95;;;-0.30;90.90;;;;;;6216364;22;88604;-83
2023/04/04 06:22:46;;;;;;;11.50;6.55;;;0.00;91.10;;;;;;6151672;22;90489;-80
2023/04/04 06:25:13;;;;;;;11.60;5.75;;;0.10;90.90;;;;;;6152307;22;89183;-82
2023/04/04 06:27:39;;;;;;;14.27;5.10;;;0.20;90.40;;;;;;6127646;22;90042;-79
2023/04/04 06:30:06;;;;;;;8.23;4.70;;;0.30;90.40;;;;;;6152266;22;88377;-79
2023/04/04 06:42:36;;;;;;;12.30;4.68;;;0.90;89.00;;;;;;6151463;22;87279;-76
2023/04/04 06:45:02;;;;;;;12.50;5.32;;;1.00;88.90;;;;;;6152098;22;87759;-76
2023/04/04 06:47:28;;;;;;;10.80;5.00;;;1.10;88.70;;;;;;6191243;22;88474;-77
2023/04/04 06:49:53;;;;;;;10.48;4.97;;;1.20;87.90;;;;;;6215664;22;88102;-77
2023/04/04 06:52:24;;;;;;;13.85;6.18;;;1.30;87.10;;;;;;6188900;22;87624;-76
2023/04/04 06:54:50;;;;;;;13.32;5.35;;;1.40;86.90;;;;;;6215873;22;87444;-76
2023/04/04 06:57:17;;;;;;;13.45;4.88;;;1.60;86.50;;;;;;6178318;22;92382;-75
2023/04/04 06:59:42;;;;;;;13.15;4.88;;;1.70;85.80;;;;;;6155066;22;88973;-76
2023/04/04 07:02:08;;;;;;;16.38;5.55;;;1.80;84.80;;;;;;6155064;22;87026;-78
2023/04/04 07:04:34;;;;;;;14.52;5.32;;;2.00;84.70;;;;;;6154096;22;88982;-78
2023/04/04 07:07:00;;;;;;;12.35;4.82;;;2.10;84.10;;;;;;6154908;22;87118;-77
2023/04/04 07:09:27;;;;;;;7.80;4.65;;;2.20;82.00;;;;;;6154831;22;87742;-79
2023/04/04 07:11:52;;;;;;;11.82;4.65;;;2.30;81.70;;;;;;6154681;22;87029;-78
2023/04/04 07:14:19;;;;;;;9.23;4.13;;;2.50;80.60;;;;;;6155768;22;88125;-77
2023/04/04 07:16:44;;;;;;;9.88;4.20;;;2.60;79.60;;;;;;6154312;22;90056;-80
2023/04/04 07:19:10;;;;;;;18.38;6.18;;;2.70;78.60;;;;;;6155788;22;88263;-83
2023/04/04 07:21:36;;;;;;;10.48;4.38;;;2.80;78.00;;;;;;6155699;22;88379;-79
2023/04/04 07:24:01;;;;;;;10.00;4.38;;;2.90;77.40;;;;;;6155076;22;87818;-79
2023/04/04 07:26:27;;;;;;;11.23;4.57;;;3.00;76.40;;;;;;6155202;22;88492;-79
2023/04/04 07:28:53;;;;;;;11.32;4.30;;;3.10;77.60;;;;;;6155257;22;87513;-77
2023/04/04 07:31:20;;;;;;;12.38;3.95;;;3.30;76.80;;;;;;6156373;22;87546;-81
2023/04/04 07:33:45;;;;;;;11.50;4.18;;;3.40;75.60;;;;;;6155163;22;87136;-81
2023/04/04 07:43:07;;;;;;;7.72;2.88;;;3.90;72.80;;;;;;6156476;22;87065;-85
2023/04/04 07:45:33;;;;;;;6.63;2.72;;;4.00;70.30;;;;;;6157157;22;87117;-84
2023/04/04 07:47:58;;;;;;;6.00;2.95;;;4.10;70.30;;;;;;6153689;22;92479;-76
2023/04/04 07:50:25;;;;;;;6.05;2.50;;;4.30;68.90;;;;;;6155054;22;89224;-77
2023/04/04 07:52:51;;;;;;;8.48;2.42;;;4.40;68.80;;;;;;6155155;22;87466;-87
2023/04/04 07:55:20;;;;;;;7.43;2.88;;;4.50;67.60;;;;;;6154813;22;94030;-76
2023/04/04 07:57:46;;;;;;;10.38;3.50;;;4.60;68.00;;;;;;6175312;22;91564;-78
2023/04/04 08:00:12;;;;;;;8.20;2.70;;;4.80;67.00;;;;;;6184064;22;91157;-77
2023/04/04 08:02:38;;;;;;;3.30;2.00;;;4.90;66.20;;;;;;6186176;22;87527;-80
2023/04/04 08:05:04;;;;;;;5.60;2.38;;;5.00;64.40;;;;;;6185362;22;87947;-80
2023/04/04 08:07:30;;;;;;;7.00;1.80;;;5.20;65.70;;;;;;6187219;22;88582;-78
2023/04/04 08:09:55;;;;;;;5.57;1.88;;;5.30;63.40;;;;;;6187292;22;88455;-78
2023/04/04 08:12:21;;;;;;;7.32;1.80;;;5.50;63.60;;;;;;6186566;22;88220;-80
2023/04/04 08:14:47;;;;;;;9.15;1.90;;;5.60;64.90;;;;;;6186631;22;87464;-78
2023/04/04 08:23:56;;;;;;;4.13;1.80;;;6.00;61.90;;;;;;6186287;22;87298;-79
2023/04/04 08:26:22;;;;;;;7.18;2.20;;;6.20;61.30;;;;;;6186195;22;87226;-80
2023/04/04 08:28:49;;;;;;;8.18;2.40;;;6.30;59.80;;;;;;6187121;22;87440;-79
2023/04/04 08:31:14;;;;;;;5.57;2.05;;;6.40;60.10;;;;;;6187069;22;88791;-80
2023/04/04 08:33:44;;;;;;;8.95;2.72;;;6.60;59.30;;;;;;6185184;22;88816;-81
2023/04/04 08:36:09;;;;;;;6.70;1.90;;;6.70;58.90;;;;;;6185058;22;89670;-80
2023/04/04 08:38:35;;;;;;;4.10;1.65;;;6.80;59.80;;;;;;6185838;22;89033;-78
2023/04/04 08:41:00;;;;;;;7.40;2.13;;;7.00;58.10;;;;;;6186943;22;95626;-80
2023/04/04 08:43:26;;;;;;;6.55;1.60;;;7.10;58.50;;;;;;6188206;22;87490;-87
2023/04/04 08:45:53;;;;;;;8.68;2.20;;;7.30;57.50;;;;;;6186956;22;87799;-87
2023/04/04 08:48:20;;;;;;;4.07;1.75;;;7.40;55.80;;;;;;6187001;22;87869;-81
2023/04/04 08:50:46;;;;;;;7.18;1.90;;;7.50;55.50;;;;;;6185596;22;91219;-79
2023/04/04 08:53:13;;;;;;;5.22;2.03;;;7.70;55.70;;;;;;6187655;22;87393;-79
2023/04/04 09:07:05;;;;;;;8.10;2.15;;;8.50;54.60;;;;;;6182554;22;88109;-79
2023/04/04 09:09:32;;;;;;;4.20;2.67;;;8.50;53.50;;;;;;6217812;22;87530;-79
2023/04/04 09:12:01;;;;;;;6.97;2.30;;;8.70;54.50;;;;;;6219702;22;88727;-79
2023/04/04 09:14:29;;;;;;;4.93;2.10;;;8.90;55.20;;;;;;6218383;22;87949;-81
2023/04/04 09:16:55;;;;;;;5.80;2.17;;;9.00;54.80;;;;;;6217064;22;87191;-79
2023/04/04 09:19:21;;;;;;;3.97;1.80;;;9.30;55.40;;;;;;6221022;22;87351;-81
2023/04/04 09:21:49;;;;;;;6.05;2.17;;;9.50;56.60;;;;;;6218686;22;88728;-79
2023/04/04 09:24:15;;;;;;;6.55;2.67;;;9.60;52.20;;;;;;6192276;22;89832;-80
2023/04/04 09:26:52;;;;;;;6.97;1.95;;;9.70;52.10;;;;;;6218224;22;87545;-78
2023/04/04 09:29:19;;;;;;;9.50;2.20;;;9.80;54.50;;;;;;6218371;22;87447;-78
2023/04/04 09:31:45;;;;;;;5.47;1.90;;;10.00;52.10;;;;;;6217268;22;88846;-78
2023/04/04 09:37:40;;;;;;;3.97;1.55;;;10.30;49.00;;;;;;6217109;22;86896;-78
2023/04/04 09:40:10;;;;;;;8.88;1.90;;;10.30;49.50;;;;;;6216929;22;87293;-78
2023/04/04 09:42:35;;;;;;;4.65;1.95;;;10.40;50.80;;;;;;6217214;22;88536;-78
2023/04/04 09:45:01;;;;;;;4.63;2.10;;;10.60;48.90;;;;;;6217119;22;88839;-78
2023/04/04 09:47:29;;;;;;;6.72;2.28;;;10.70;50.10;;;;;;6219504;22;87354;-80
2023/04/04 09:50:03;;;;;;;9.55;1.80;;;10.90;47.60;;;;;;6196734;22;88028;-80
2023/04/04 09:52:34;;;;;;;;;;;11.00;49.40;;;;;;6221004;22;88603;-80
2023/04/04 09:55:03;;;;;;;6.43;2.40;;;11.10;48.50;;;;;;6195132;22;90903;-76
2023/04/04 09:58:09;;;;;;;4.93;2.22;;;11.30;49.70;;;;;;6217409;22;88434;-78
2023/04/04 10:00:41;;;;;;;6.90;2.60;;;11.60;48.10;;;;;;6189348;22;90004;-79
2023/04/04 10:03:07;;;;;;;5.35;2.58;;;11.60;49.80;;;;;;6217554;22;88629;-78
2023/04/04 10:05:32;;;;;;;9.07;2.63;;;11.80;52.20;;;;;;6217103;22;88120;-78
2023/04/04 10:07:58;;;;;;;8.70;2.40;;;12.00;48.60;;;;;;6190548;22;87384;-78
2023/04/04 10:10:30;;;;;;;5.20;1.75;;;12.00;47.60;;;;;;6217977;22;87501;-78
2023/04/04 10:12:57;;;;;;;7.85;2.40;;;12.10;49.80;;;;;;6216122;22;87989;-78
2023/04/04 10:15:23;;;;;;;5.68;2.35;;;12.30;47.50;;;;;;6218728;22;89352;-77
2023/04/04 10:17:51;;;;;;;5.80;2.03;;;12.40;49.70;;;;;;6190993;22;87617;-79
2023/04/04 10:20:17;;;;;;;7.70;2.25;;;12.70;48.90;;;;;;6221359;22;87396;-79
2023/04/04 10:22:44;;;;;;;4.68;2.08;;;12.80;46.10;;;;;;6220746;22;88514;-80
2023/04/04 10:25:10;;;;;;;8.43;2.13;;;12.90;47.30;;;;;;6220393;22;87535;-80
2023/04/04 10:27:37;;;;;;;6.13;2.70;;;13.10;48.70;;;;;;6220219;22;87403;-79
2023/04/04 10:30:03;;;;;;;4.85;1.88;;;13.20;45.70;;;;;;6217954;22;87465;-80
2023/04/04 10:32:51;;;;;;;4.97;1.73;;;13.20;45.90;;;;;;6223379;22;87956;-80
2023/04/04 10:35:21;;;;;;;5.80;2.20;;;13.30;46.80;;;;;;6221524;22;87969;-79
2023/04/04 10:38:07;;;;;;;5.80;1.90;;;13.40;47.20;;;;;;6197390;22;87382;-81
2023/04/04 10:40:39;;;;;;;5.15;2.10;;;13.50;45.10;;;;;;6220546;22;92311;-80
2023/04/04 10:43:06;;;;;;;6.45;2.92;;;13.50;47.50;;;;;;6223655;22;87660;-78
2023/04/04 10:45:33;;;;;;;8.02;2.25;;;13.70;46.80;;;;;;6195018;22;89955;-79
2023/04/04 10:48:03;;;;;;;5.18;2.30;;;13.70;45.80;;;;;;6220618;22;88251;-79
2023/04/04 10:50:32;;;;;;;3.85;2.08;;;13.80;45.10;;;;;;6222277;22;87438;-79
2023/04/04 10:53:01;;;;;;;5.90;2.10;;;14.00;45.70;;;;;;6222100;22;88537;-78
2023/04/04 10:55:28;;;;;;;5.30;2.60;;;14.00;43.50;;;;;;6218520;22;87502;-79
2023/04/04 10:57:55;;;;;;;5.30;1.95;;;14.30;44.50;;;;;;6218135;22;87681;-79
2023/04/04 11:00:25;;;;;;;3.90;2.38;;;14.60;46.10;;;;;;6187439;22;90340;-78
2023/04/04 11:02:58;;;;;;;6.93;2.15;;;14.70;42.10;;;;;;6218609;22;87538;-78
2023/04/04 11:05:42;;;;;;;4.03;2.28;;;14.60;43.30;;;;;;6191786;22;91663;-77
2023/04/04 11:08:28;;;;;;;5.80;2.67;;;14.70;43.00;;;;;;6217369;22;87319;-78
2023/04/04 11:10:55;;;;;;;6.07;2.35;;;14.90;43.00;;;;;;6125514;23;90614;-79
2023/04/04 11:13:34;;;;;;;3.25;2.17;;;15.10;44.10;;;;;;6105282;23;91476;-80
2023/04/04 11:16:03;;;;;;;4.97;1.80;;;15.40;42.30;;;;;;6127247;23;88749;-80
2023/04/04 11:18:40;;;;;;;2.70;1.75;;;15.10;42.40;;;;;;6101191;23;87774;-80
2023/04/04 11:21:17;;;;;;;5.97;2.30;;;15.20;43.60;;;;;;6128256;23;87466;-80
2023/04/04 11:27:06;;;;;;;4.53;1.90;;;15.40;44.20;;;;;;6125075;23;87689;-79
2023/04/04 11:29:54;;;;;;;6.47;1.75;;;15.60;43.10;;;;;;6099904;23;87033;-79
2023/04/04 11:32:43;;;;;;;6.20;2.10;;;15.70;39.30;;;;;;6124019;23;86904;-79
2023/04/04 11:38:30;;;;;;;5.68;2.33;;;16.00;42.50;;;;;;6122041;23;87523;-79
2023/04/04 11:40:56;;;;;;;10.13;1.98;;;16.10;41.10;;;;;;6130697;22;88582;-80
2023/04/04 11:43:23;;;;;;;4.35;1.65;;;16.30;39.70;;;;;;6221669;22;87710;-80
2023/04/04 11:45:50;;;;;;;3.35;2.00;;;16.30;41.70;;;;;;6218665;22;88088;-79
2023/04/04 11:48:17;;;;;;;3.28;1.85;;;16.40;38.70;;;;;;6217738;22;87793;-79
2023/04/04 11:50:48;;;;;;;5.28;2.00;;;16.40;40.60;;;;;;6219532;22;87478;-79
2023/04/04 11:53:14;;;;;;;2.88;1.65;;;16.50;40.20;;;;;;6221129;22;87619;-80
2023/04/04 11:58:16;;;;;;;8.15;2.13;;;16.90;39.60;;;;;;6188000;22;86862;-80
2023/04/04 12:00:43;;;;;;;8.93;3.35;;;17.10;39.90;;;;;;6198197;22;87432;-81
2023/04/04 12:03:12;;;;;;;5.60;2.47;;;17.30;38.00;;;;;;6199056;22;87433;-81
2023/04/04 12:05:42;;;;;;;4.57;2.08;;;17.40;41.00;;;;;;6192412;22;89332;-80
2023/04/04 12:08:10;;;;;;;4.80;1.88;;;17.30;38.90;;;;;;6193338;22;88831;-80
2023/04/04 12:10:37;;;;;;;3.47;1.92;;;17.40;39.10;;;;;;6193663;22;87081;-81
2023/04/04 12:13:07;;;;;;;7.43;2.40;;;17.50;39.90;;;;;;6196914;22;87653;-81
2023/04/04 12:15:34;;;;;;;8.30;1.80;;;17.70;37.90;;;;;;6206703;22;88862;-81
2023/04/04 12:18:01;;;;;;;5.00;2.03;;;17.60;38.80;;;;;;6155832;22;89072;-81
2023/04/04 12:20:30;;;;;;;4.85;2.03;;;17.70;40.50;;;;;;6164450;22;87755;-81
2023/04/04 12:22:56;;;;;;;3.45;1.92;;;17.80;38.90;;;;;;6165281;22;87019;-81
2023/04/04 12:25:23;;;;;;;7.55;1.70;;;18.00;40.50;;;;;;6165611;22;88784;-80
2023/04/04 12:27:51;;;;;;;2.67;1.60;;;18.40;41.40;;;;;;6160919;22;88008;-80
2023/04/04 12:30:17;;;;;;;5.43;2.13;;;18.40;36.50;;;;;;6135296;22;88078;-80
2023/04/04 12:32:45;;;;;;;7.93;2.00;;;18.30;39.80;;;;;;6159215;22;87338;-80
2023/04/04 12:35:12;;;;;;;7.20;2.28;;;18.50;39.50;;;;;;6159788;22;89138;-80
2023/04/04 12:37:39;;;;;;;4.50;1.85;;;18.80;36.40;;;;;;6134382;22;90150;-80
2023/04/04 12:40:06;;;;;;;5.97;2.40;;;18.90;36.90;;;;;;6161370;22;87422;-81
2023/04/04 12:42:34;;;;;;;3.78;2.20;;;18.80;36.50;;;;;;6136418;22;88647;-80
2023/04/04 12:45:04;;;;;;;5.05;2.35;;;18.80;37.60;;;;;;6160513;22;88035;-80
2023/04/04 12:47:30;;;;;;;5.35;2.13;;;18.90;39.40;;;;;;6159520;22;88040;-81
2023/04/04 12:49:56;;;;;;;4.40;2.58;;;18.90;38.70;;;;;;6189656;22;87081;-80
2023/04/04 12:52:31;;;;;;;4.78;1.85;;;19.10;37.10;;;;;;6195152;22;86977;-81
2023/04/04 12:55:11;;;;;;;6.10;2.58;;;19.10;39.20;;;;;;6194594;22;89432;-80
2023/04/04 12:57:38;;;;;;;3.95;2.30;;;19.10;38.50;;;;;;6218322;22;88175;-81
2023/04/04 13:00:07;;;;;;;3.60;1.98;;;19.10;37.60;;;;;;6202626;22;87293;-80
2023/04/04 13:02:35;;;;;;;4.88;2.13;;;19.30;36.50;;;;;;6220828;22;87410;-80
2023/04/04 13:05:02;;;;;;;6.47;2.80;;;19.50;37.80;;;;;;6220497;22;88784;-80
2023/04/04 13:07:31;;;;;;;7.82;2.50;;;19.50;36.70;;;;;;6221547;22;88212;-80
2023/04/04 13:09:58;;;;;;;2.70;2.20;;;19.70;37.70;;;;;;6152454;22;86963;-80
2023/04/04 13:12:23;;;;;;;8.48;2.53;;;20.00;38.30;;;;;;6219956;22;87744;-80
2023/04/04 13:15:02;;;;;;;3.00;2.03;;;20.30;37.90;;;;;;6219257;22;87465;-78
2023/04/04 13:17:48;;;;;;;3.55;2.53;;;20.40;37.30;;;;;;6192347;22;91074;-80
2023/04/04 13:20:16;;;;;;;5.85;2.33;;;20.90;36.60;;;;;;6219043;22;88207;-80
2023/04/04 13:22:42;;;;;;;3.13;2.00;;;21.10;35.80;;;;;;6220306;22;87628;-80
2023/04/04 13:25:09;;;;;;;5.28;2.20;;;21.10;35.90;;;;;;6218371;22;88653;-79
2023/04/04 13:27:36;;;;;;;4.15;2.17;;;21.20;34.90;;;;;;6217702;22;87975;-80
2023/04/04 13:30:05;;;;;;;7.43;3.40;;;21.20;34.50;;;;;;6219059;22;87485;-80
2023/04/04 13:32:30;;;;;;;8.05;2.40;;;21.20;33.50;;;;;;6217930;22;87784;-80
2023/04/04 13:34:56;;;;;;;5.90;2.33;;;21.30;34.50;;;;;;6220595;22;88278;-80
2023/04/04 13:37:21;;;;;;;7.32;2.45;;;21.50;35.60;;;;;;6228467;22;87369;-81
2023/04/04 13:39:47;;;;;;;5.38;2.25;;;21.70;35.00;;;;;;6229124;22;86957;-80
2023/04/04 13:42:13;;;;;;;6.82;2.45;;;21.70;35.10;;;;;;6217956;22;87944;-79
2023/04/04 13:44:38;;;;;;;4.72;2.65;;;21.90;34.60;;;;;;6217115;22;89345;-79
2023/04/04 13:47:04;;;;;;;5.22;2.42;;;21.80;34.80;;;;;;6190167;22;92316;-79
2023/04/04 13:49:30;;;;;;;6.95;2.50;;;21.70;35.00;;;;;;6218592;22;87601;-79
2023/04/04 13:51:55;;;;;;;8.50;2.70;;;21.50;33.30;;;;;;6216912;22;87564;-79
2023/04/04 13:54:21;;;;;;;10.20;2.50;;;21.60;34.50;;;;;;6217035;22;88033;-78
2023/04/04 14:12:52;;;;;;;4.00;2.92;;;22.70;33.60;;;;;;6209021;22;88925;-79
2023/04/04 14:15:18;;;;;;;2.83;2.10;;;22.80;33.00;;;;;;6216915;22;88442;-79
2023/04/04 14:17:44;;;;;;;3.35;2.00;;;22.90;32.80;;;;;;6216657;22;87668;-78
2023/04/04 14:20:10;;;;;;;5.20;2.38;;;23.00;33.10;;;;;;6216496;22;88485;-78
2023/04/04 14:39:32;;;;;;;4.22;2.15;;;24.20;31.70;;;;;;6217474;22;87271;-79
2023/04/04 14:41:57;;;;;;;3.45;2.22;;;24.30;31.30;;;;;;6216776;22;87537;-79
2023/04/04 14:44:23;;;;;;;4.90;2.22;;;24.50;29.70;;;;;;6216102;22;89821;-79
2023/04/04 14:46:51;;;;;;;3.67;1.88;;;24.50;29.70;;;;;;6217020;22;89267;-77
2023/04/04 14:49:17;;;;;;;4.60;1.80;;;24.20;30.80;;;;;;6216536;22;87480;-77
2023/04/04 14:51:43;;;;;;;5.75;1.98;;;24.30;29.90;;;;;;6216587;22;87688;-77
2023/04/04 14:54:09;;;;;;;4.50;1.92;;;24.30;29.90;;;;;;6216243;22;88564;-82
2023/04/04 14:56:55;;;;;;;5.07;2.00;;;24.50;28.10;;;;;;6151073;22;87520;-83
2023/04/04 14:59:20;;;;;;;6.63;2.15;;;25.00;28.00;;;;;;6127737;22;87169;-84
2023/04/04 15:01:46;;;;;;;8.52;2.20;;;25.20;27.60;;;;;;6153240;22;87367;-82
2023/04/04 15:04:11;;;;;;;4.72;2.20;;;25.30;27.70;;;;;;6128623;22;91692;-82
2023/04/04 15:06:38;;;;;;;8.80;2.17;;;25.20;28.30;;;;;;6153168;22;88026;-83
2023/04/04 15:09:09;;;;;;;5.03;2.03;;;24.80;27.80;;;;;;6152964;22;87850;-83
2023/04/04 15:11:34;;;;;;;7.68;2.22;;;24.80;28.00;;;;;;6152547;22;87451;-83
2023/04/04 15:14:00;;;;;;;5.57;2.53;;;24.70;28.40;;;;;;6152077;22;88921;-83
2023/04/04 15:16:28;;;;;;;7.55;2.33;;;24.40;28.60;;;;;;6152577;22;87530;-81
2023/04/04 15:18:54;;;;;;;5.45;2.72;;;24.50;28.60;;;;;;6153067;22;87474;-80
2023/04/04 15:21:20;;;;;;;3.25;2.17;;;24.00;27.70;;;;;;6155725;22;87576;-80
2023/04/04 15:23:46;;;;;;;5.53;2.55;;;23.70;28.20;;;;;;6133111;22;90341;-80
2023/04/04 15:26:11;;;;;;;4.80;2.33;;;23.80;28.40;;;;;;6155040;22;88107;-80
2023/04/04 15:28:37;;;;;;;5.95;2.42;;;24.10;29.00;;;;;;6155982;22;87545;-81